Terminal Aerodrome Forecast
Issued by NWS Twin Cities, MN

Home | Current Version | Previous Version | Graphics & Text | Print | Product List | Glossary On
Versions: 1 2 3 4 5 6 7 8 9 10 11 12 13 14 15 16 17 18
114
FTUS43 KMPX 060520
TAFSTC
TAF
KSTC 060520Z 0606/0706 22014G23KT P6SM OVC020
     FM061500 24019G30KT P6SM OVC020
      TEMPO 0617/0621 2SM -SHSN OVC012
     FM070000 27022G31KT P6SM OVC025=

USA.gov is the U.S. government's official web portal to all federal, state and local government web resources and services.